createdAt,value
2022-11-19T00:01:27.372Z,8.80
2022-11-19T00:03:54.631Z,8.90
2022-11-19T00:06:26.273Z,8.90
2022-11-19T00:08:53.842Z,8.90
2022-11-19T00:11:41.528Z,8.80
2022-11-19T00:14:13.459Z,8.90
2022-11-19T00:16:41.020Z,8.80
2022-11-19T00:26:29.418Z,8.90
2022-11-19T00:31:23.551Z,8.90
2022-11-19T00:33:50.831Z,8.90
2022-11-19T00:36:18.033Z,8.90
2022-11-19T00:41:12.584Z,8.80
2022-11-19T00:46:21.019Z,8.90
2022-11-19T00:48:48.854Z,8.80
2022-11-19T00:51:17.356Z,8.80
2022-11-19T00:56:13.895Z,8.80
2022-11-19T00:58:41.649Z,8.80
2022-11-19T01:01:09.899Z,8.80
2022-11-19T01:06:06.144Z,8.70
2022-11-19T01:08:32.977Z,8.80
2022-11-19T01:11:08.885Z,8.80
2022-11-19T01:13:36.271Z,8.80
2022-11-19T01:16:17.853Z,8.80
2022-11-19T01:18:47.514Z,8.70
2022-11-19T01:21:14.871Z,8.70
2022-11-19T01:23:43.104Z,8.70
2022-11-19T01:26:11.203Z,8.70
2022-11-19T01:28:38.692Z,8.70
2022-11-19T01:31:20.721Z,8.70
2022-11-19T01:33:47.993Z,8.70
2022-11-19T01:36:18.846Z,8.70
2022-11-19T01:38:50.978Z,8.70
2022-11-19T01:41:27.637Z,8.70
2022-11-19T01:43:54.333Z,8.70
2022-11-19T01:46:23.641Z,8.70
2022-11-19T01:49:13.684Z,8.70
2022-11-19T01:52:00.873Z,8.70
2022-11-19T01:54:41.234Z,8.60
2022-11-19T01:57:13.130Z,8.70
2022-11-19T02:04:36.257Z,8.70
2022-11-19T02:12:06.508Z,8.70
2022-11-19T02:14:55.403Z,8.60
2022-11-19T02:17:50.120Z,8.70
2022-11-19T02:20:41.209Z,8.70
2022-11-19T02:23:46.648Z,8.70
2022-11-19T02:26:19.202Z,8.70
2022-11-19T02:28:54.507Z,8.70
2022-11-19T02:31:39.500Z,8.70
2022-11-19T02:34:16.383Z,8.70
2022-11-19T02:37:01.756Z,8.70
2022-11-19T02:40:00.516Z,8.70
2022-11-19T02:42:38.473Z,8.70
2022-11-19T02:45:17.729Z,8.70
2022-11-19T02:47:48.035Z,8.60
2022-11-19T02:50:26.760Z,8.60
2022-11-19T02:55:22.097Z,8.60
2022-11-19T02:58:10.888Z,8.50
2022-11-19T03:01:08.333Z,8.50
2022-11-19T03:03:54.354Z,8.50
2022-11-19T03:06:25.663Z,8.50
2022-11-19T03:08:52.552Z,8.40
2022-11-19T03:11:26.481Z,8.40
2022-11-19T03:14:27.269Z,8.40
2022-11-19T03:16:59.300Z,8.40
2022-11-19T03:19:44.701Z,8.30
2022-11-19T03:22:23.348Z,8.30
2022-11-19T03:27:25.228Z,8.30
2022-11-19T03:29:56.651Z,8.30
2022-11-19T03:32:28.470Z,8.30
2022-11-19T03:34:59.985Z,8.30
2022-11-19T03:39:58.977Z,8.20
2022-11-19T03:42:27.065Z,8.10
2022-11-19T03:45:10.242Z,7.90
2022-11-19T03:47:39.951Z,7.70
2022-11-19T03:50:18.748Z,7.60
2022-11-19T03:55:12.987Z,7.30
2022-11-19T03:57:40.161Z,7.20
2022-11-19T04:12:25.275Z,6.70
2022-11-19T04:17:19.998Z,6.60
2022-11-19T04:24:41.156Z,6.50
2022-11-19T04:29:35.074Z,6.40
2022-11-19T04:34:29.037Z,6.40
2022-11-19T04:39:23.201Z,6.30
2022-11-19T04:44:17.274Z,6.30
2022-11-19T04:46:44.289Z,6.20
2022-11-19T04:51:38.252Z,6.10
2022-11-19T04:56:32.336Z,6.00
2022-11-19T05:01:26.797Z,6.00
2022-11-19T05:08:47.810Z,5.90
2022-11-19T05:16:08.834Z,5.90
2022-11-19T05:21:03.040Z,5.90
2022-11-19T05:23:29.737Z,5.80
2022-11-19T05:25:56.567Z,5.70
2022-11-19T05:28:37.655Z,5.60
2022-11-19T05:40:55.876Z,5.60
2022-11-19T05:43:22.615Z,5.60
2022-11-19T05:45:49.426Z,5.60
2022-11-19T05:48:16.190Z,5.60
2022-11-19T05:53:10.361Z,5.40
2022-11-19T06:02:58.477Z,5.20
2022-11-19T06:07:52.492Z,5.20
2022-11-19T06:10:19.190Z,5.20
2022-11-19T06:15:14.510Z,5.10
2022-11-19T06:17:41.469Z,5.20
2022-11-19T06:20:10.956Z,5.10
2022-11-19T06:25:05.987Z,5.10
2022-11-19T06:32:27.543Z,5.00
2022-11-19T06:34:54.235Z,5.00
2022-11-19T06:39:48.128Z,5.00
2022-11-19T06:42:33.208Z,5.00
2022-11-19T06:47:27.075Z,5.00
2022-11-19T06:54:48.107Z,4.90
2022-11-19T06:57:15.065Z,4.80
2022-11-19T07:02:11.755Z,4.80
2022-11-19T07:07:06.659Z,4.80
2022-11-19T07:09:33.431Z,4.80
2022-11-19T07:14:27.383Z,4.80
2022-11-19T07:19:21.780Z,4.80
2022-11-19T07:24:17.889Z,4.70
2022-11-19T07:26:44.978Z,4.60
2022-11-19T07:29:13.586Z,4.70
2022-11-19T07:34:09.515Z,4.80
2022-11-19T07:36:36.889Z,4.80
2022-11-19T07:39:05.251Z,4.80
2022-11-19T07:46:45.289Z,4.80
2022-11-19T07:51:39.172Z,4.70
2022-11-19T07:59:01.028Z,4.80
2022-11-19T08:01:27.756Z,4.80
2022-11-19T08:03:56.799Z,4.80
2022-11-19T08:06:25.910Z,4.90
2022-11-19T08:11:19.970Z,4.80
2022-11-19T08:16:35.611Z,4.90
2022-11-19T08:19:09.459Z,4.90
2022-11-19T08:21:39.705Z,4.90
2022-11-19T08:24:06.833Z,4.90
2022-11-19T08:29:00.706Z,5.00
2022-11-19T08:33:54.611Z,5.10
2022-11-19T08:38:48.533Z,5.20
2022-11-19T08:41:33.650Z,5.20
2022-11-19T08:44:02.209Z,5.20
2022-11-19T08:51:23.019Z,5.20
2022-11-19T08:53:52.463Z,5.20
2022-11-19T08:56:20.085Z,5.10
2022-11-19T08:58:47.514Z,5.20
2022-11-19T09:01:16.158Z,5.20
2022-11-19T09:03:43.483Z,5.20
2022-11-19T09:06:10.897Z,5.30
2022-11-19T09:11:11.668Z,5.40
2022-11-19T09:13:39.070Z,5.40
2022-11-19T09:16:06.444Z,5.30
2022-11-19T09:21:00.520Z,5.30
2022-11-19T09:23:27.755Z,5.40
2022-11-19T09:25:59.873Z,5.50
2022-11-19T09:28:28.113Z,5.50
2022-11-19T09:30:59.637Z,5.70
2022-11-19T09:33:26.892Z,5.70
2022-11-19T09:35:53.522Z,5.70
2022-11-19T09:38:20.529Z,5.70
2022-11-19T09:40:51.250Z,5.70
2022-11-19T09:46:03.985Z,5.60
2022-11-19T09:48:39.118Z,5.50
2022-11-19T09:51:16.892Z,5.40
2022-11-19T09:53:54.724Z,5.40
2022-11-19T09:56:33.335Z,5.30
2022-11-19T10:01:28.165Z,5.40
2022-11-19T10:09:12.182Z,5.40
2022-11-19T10:12:00.435Z,5.40
2022-11-19T10:14:39.087Z,5.40
2022-11-19T10:17:45.215Z,5.30
2022-11-19T10:20:28.961Z,5.30
2022-11-19T10:23:12.103Z,5.30
2022-11-19T10:25:47.579Z,5.30
2022-11-19T10:28:30.168Z,5.20
2022-11-19T10:31:11.626Z,5.20
2022-11-19T10:33:52.410Z,5.30
2022-11-19T10:36:31.876Z,5.30
2022-11-19T10:41:52.600Z,5.40
2022-11-19T10:44:57.296Z,5.40
2022-11-19T10:47:48.150Z,5.40
2022-11-19T10:50:26.101Z,5.60
2022-11-19T10:53:14.583Z,5.60
2022-11-19T10:55:51.393Z,5.60
2022-11-19T10:58:29.356Z,5.60
2022-11-19T11:00:59.540Z,5.60
2022-11-19T11:03:52.027Z,5.60
2022-11-19T11:08:52.972Z,5.60
2022-11-19T11:11:50.404Z,5.60
2022-11-19T11:14:40.978Z,5.70
2022-11-19T11:17:20.963Z,5.70
2022-11-19T11:20:05.124Z,5.70
2022-11-19T11:22:32.701Z,5.80
2022-11-19T11:25:05.864Z,5.80
2022-11-19T11:27:35.546Z,5.80
2022-11-19T11:30:11.349Z,5.80
2022-11-19T11:32:39.462Z,5.80
2022-11-19T11:45:01.409Z,5.80
2022-11-19T11:47:31.944Z,5.80
2022-11-19T11:50:07.990Z,5.80
2022-11-19T11:52:42.498Z,5.80
2022-11-19T11:55:24.230Z,5.80
2022-11-19T11:58:02.400Z,5.70
2022-11-19T12:00:40.467Z,5.80
2022-11-19T12:03:13.780Z,5.80
2022-11-19T12:06:01.839Z,5.90
2022-11-19T12:08:43.553Z,6.00
2022-11-19T12:11:54.147Z,6.00
2022-11-19T12:14:44.212Z,5.90
2022-11-19T12:17:26.160Z,5.90
2022-11-19T12:20:17.908Z,5.80
2022-11-19T12:23:03.186Z,5.80
2022-11-19T12:25:51.721Z,5.80
2022-11-19T12:28:24.182Z,5.80
2022-11-19T12:33:20.795Z,5.90
2022-11-19T12:36:08.473Z,5.90
2022-11-19T12:39:10.407Z,5.80
2022-11-19T12:41:54.994Z,5.80
2022-11-19T12:44:45.738Z,5.70
2022-11-19T12:47:49.434Z,5.80
2022-11-19T12:50:22.763Z,5.80
2022-11-19T12:52:52.654Z,5.80
2022-11-19T12:55:33.352Z,5.70
2022-11-19T13:00:30.187Z,5.80
2022-11-19T13:03:05.239Z,5.90
2022-11-19T13:05:47.706Z,5.90
2022-11-19T13:08:33.216Z,5.90
2022-11-19T13:11:20.016Z,5.90
2022-11-19T13:13:58.410Z,5.90
2022-11-19T13:16:28.442Z,6.00
2022-11-19T13:19:08.970Z,6.00
2022-11-19T13:21:45.882Z,6.30
2022-11-19T13:24:30.727Z,5.90
2022-11-19T13:27:04.107Z,5.80
2022-11-19T13:29:44.559Z,5.80
2022-11-19T13:32:17.131Z,5.70
2022-11-19T13:35:20.389Z,5.70
2022-11-19T13:37:58.491Z,5.70
2022-11-19T13:40:40.679Z,5.60
2022-11-19T13:43:34.268Z,5.60
2022-11-19T13:46:15.733Z,5.50
2022-11-19T13:49:01.198Z,5.60
2022-11-19T13:51:38.692Z,5.60
2022-11-19T13:54:08.083Z,5.60
2022-11-19T13:56:47.381Z,5.60
2022-11-19T13:59:31.172Z,5.50
2022-11-19T14:02:12.836Z,5.50
2022-11-19T14:05:11.247Z,5.50
2022-11-19T14:07:46.220Z,5.40
2022-11-19T14:10:33.135Z,5.40
2022-11-19T14:21:42.751Z,5.50
2022-11-19T14:24:42.964Z,5.40
2022-11-19T14:27:26.510Z,5.40
2022-11-19T14:30:17.929Z,5.50
2022-11-19T14:32:50.715Z,5.50
2022-11-19T14:35:26.168Z,5.50
2022-11-19T14:38:25.771Z,5.50
2022-11-19T14:41:08.316Z,5.50
2022-11-19T14:44:08.260Z,5.40
2022-11-19T14:46:37.048Z,5.40
2022-11-19T14:49:07.034Z,5.30
2022-11-19T14:51:40.438Z,5.40
2022-11-19T14:54:16.227Z,5.40
2022-11-19T14:56:47.104Z,5.40
2022-11-19T14:59:16.567Z,5.40
2022-11-19T15:02:00.065Z,5.40
2022-11-19T15:05:01.640Z,5.40
2022-11-19T15:07:39.436Z,5.40
2022-11-19T15:10:14.570Z,5.40
2022-11-19T15:12:44.264Z,5.40
2022-11-19T15:15:19.817Z,1.80
2022-11-19T15:18:01.900Z,5.30
2022-11-19T15:20:46.979Z,5.30
2022-11-19T15:23:25.881Z,5.30
2022-11-19T15:26:01.190Z,5.30
2022-11-19T15:28:49.389Z,5.30
2022-11-19T15:31:21.949Z,5.30
2022-11-19T15:34:48.662Z,5.30
2022-11-19T15:37:21.289Z,5.20
2022-11-19T15:39:52.477Z,5.20
2022-11-19T15:42:25.354Z,5.20
2022-11-19T15:45:02.945Z,5.20
2022-11-19T15:47:39.285Z,5.20
2022-11-19T15:50:11.206Z,5.20
2022-11-19T15:52:37.828Z,5.20
2022-11-19T15:55:23.713Z,5.20
2022-11-19T16:00:23.457Z,5.20
2022-11-19T16:02:52.668Z,5.30
2022-11-19T16:05:30.521Z,5.30
2022-11-19T16:07:59.851Z,5.30
2022-11-19T16:13:20.757Z,5.30
2022-11-19T16:16:13.155Z,5.20
2022-11-19T16:18:47.647Z,5.20
2022-11-19T16:21:36.926Z,5.20
2022-11-19T16:29:26.263Z,5.10
2022-11-19T16:31:56.569Z,5.10
2022-11-19T16:34:25.723Z,5.10
2022-11-19T16:36:53.242Z,5.10
2022-11-19T16:39:25.390Z,5.10
2022-11-19T16:42:15.765Z,5.00
2022-11-19T16:44:48.119Z,5.00
2022-11-19T16:47:50.127Z,5.00
2022-11-19T16:50:32.066Z,4.90
2022-11-19T16:53:03.535Z,5.00
2022-11-19T16:55:36.214Z,4.90
2022-11-19T16:58:13.805Z,4.90
2022-11-19T17:00:45.062Z,5.00
2022-11-19T17:03:20.898Z,5.00
2022-11-19T17:05:49.984Z,5.00
2022-11-19T17:08:21.932Z,5.00
2022-11-19T17:15:50.003Z,5.00
2022-11-19T17:18:18.313Z,5.00
2022-11-19T17:23:22.080Z,4.90
2022-11-19T17:25:56.428Z,5.00
2022-11-19T17:28:37.960Z,4.90
2022-11-19T17:31:17.051Z,5.00
2022-11-19T17:33:58.467Z,4.90
2022-11-19T17:38:55.671Z,4.90
2022-11-19T17:41:44.231Z,4.90
2022-11-19T17:44:35.921Z,4.90
2022-11-19T17:47:20.688Z,4.90
2022-11-19T17:52:28.183Z,4.90
2022-11-19T17:55:02.702Z,4.80
2022-11-19T17:59:56.507Z,4.80
2022-11-19T18:04:51.883Z,4.80
2022-11-19T18:07:18.753Z,4.80
2022-11-19T18:12:15.511Z,4.70
2022-11-19T18:14:42.878Z,4.70
2022-11-19T18:17:14.517Z,4.70
2022-11-19T18:19:46.255Z,4.70
2022-11-19T18:22:19.559Z,4.70
2022-11-19T18:24:48.350Z,4.60
2022-11-19T18:27:15.906Z,4.70
2022-11-19T18:32:15.810Z,4.60
2022-11-19T18:37:10.150Z,4.70
2022-11-19T18:42:04.297Z,4.60
2022-11-19T18:47:10.224Z,4.60
2022-11-19T18:49:37.988Z,4.60
2022-11-19T18:52:07.238Z,4.60
2022-11-19T18:54:34.445Z,4.60
2022-11-19T18:57:01.482Z,4.60
2022-11-19T18:59:29.811Z,4.60
2022-11-19T19:01:56.661Z,4.60
2022-11-19T19:04:24.136Z,4.60
2022-11-19T19:06:51.341Z,4.60
2022-11-19T19:09:21.948Z,4.50
2022-11-19T19:12:13.078Z,4.50
2022-11-19T19:17:07.724Z,4.50
2022-11-19T19:22:02.407Z,4.50
2022-11-19T19:24:29.387Z,4.50
2022-11-19T19:26:56.065Z,4.50
2022-11-19T19:31:50.374Z,4.50
2022-11-19T19:36:47.684Z,4.50
2022-11-19T19:39:18.766Z,4.40
2022-11-19T19:41:45.793Z,4.40
2022-11-19T19:44:12.509Z,4.50
2022-11-19T19:46:39.234Z,4.50
2022-11-19T19:49:06.078Z,4.60
2022-11-19T19:51:32.937Z,4.60
2022-11-19T19:54:00.340Z,4.50
2022-11-19T19:56:31.872Z,4.50
2022-11-19T19:58:59.788Z,4.50
2022-11-19T20:01:32.417Z,4.50
2022-11-19T20:04:04.726Z,4.50
2022-11-19T20:06:31.926Z,4.50
2022-11-19T20:08:59.173Z,4.50
2022-11-19T20:11:26.869Z,4.50
2022-11-19T20:13:55.172Z,4.40
2022-11-19T20:16:24.557Z,4.40
2022-11-19T20:18:52.160Z,4.40
2022-11-19T20:21:23.025Z,4.40
2022-11-19T20:26:22.512Z,4.40
2022-11-19T20:28:55.072Z,4.40
2022-11-19T20:31:22.244Z,4.40
2022-11-19T20:33:54.686Z,4.40
2022-11-19T20:38:50.849Z,4.40
2022-11-19T20:41:38.170Z,4.40
2022-11-19T20:44:21.939Z,4.40
2022-11-19T20:47:00.140Z,4.40
2022-11-19T20:49:32.619Z,4.40
2022-11-19T20:52:02.275Z,4.40
2022-11-19T20:54:29.251Z,4.40
2022-11-19T20:59:26.080Z,4.30
2022-11-19T21:01:54.390Z,4.30
2022-11-19T21:04:21.955Z,4.30
2022-11-19T21:06:53.776Z,4.30
2022-11-19T21:14:15.958Z,4.30
2022-11-19T21:19:10.608Z,4.30
2022-11-19T21:21:37.767Z,4.20
2022-11-19T21:24:04.905Z,4.20
2022-11-19T21:28:59.818Z,4.20
2022-11-19T21:31:38.717Z,4.20
2022-11-19T21:34:14.027Z,4.20
2022-11-19T21:39:10.044Z,4.20
2022-11-19T21:41:37.180Z,4.20
2022-11-19T21:44:04.799Z,4.20
2022-11-19T21:46:31.834Z,4.20
2022-11-19T21:48:58.625Z,4.20
2022-11-19T21:51:25.661Z,4.20
2022-11-19T21:53:56.704Z,4.20
2022-11-19T21:56:24.097Z,4.20
2022-11-19T22:01:18.210Z,4.10
2022-11-19T22:06:12.441Z,4.10
2022-11-19T22:08:41.506Z,4.10
2022-11-19T22:11:28.584Z,4.10
2022-11-19T22:14:06.379Z,5.00
2022-11-19T22:16:36.044Z,4.20
2022-11-19T22:19:03.653Z,4.10
2022-11-19T22:26:25.680Z,4.10
2022-11-19T22:28:52.345Z,4.10
2022-11-19T22:41:13.104Z,4.10
2022-11-19T22:43:40.941Z,4.10
2022-11-19T22:46:09.297Z,4.10
2022-11-19T22:51:08.807Z,4.10
2022-11-19T22:53:36.485Z,4.10
2022-11-19T22:56:04.994Z,4.10
2022-11-19T23:03:26.405Z,4.10
2022-11-19T23:10:48.801Z,4.00
2022-11-19T23:13:31.881Z,4.00
2022-11-19T23:16:09.421Z,4.10
2022-11-19T23:18:39.713Z,4.10
2022-11-19T23:21:09.623Z,4.10
2022-11-19T23:26:06.171Z,4.00
2022-11-19T23:28:34.857Z,4.10
2022-11-19T23:33:33.011Z,4.10
2022-11-19T23:36:06.553Z,4.00
2022-11-19T23:38:35.137Z,4.00
2022-11-19T23:41:02.850Z,4.00
2022-11-19T23:43:30.100Z,4.00
2022-11-19T23:46:08.042Z,4.00
2022-11-19T23:48:35.018Z,4.00
2022-11-19T23:51:07.250Z,4.00
2022-11-19T23:53:34.573Z,4.00
2022-11-19T23:58:28.455Z,3.90
